createdAt,value
2022-10-10T00:01:20.113Z,43.04
2022-10-10T00:03:47.972Z,42.75
2022-10-10T00:06:15.936Z,41.33
2022-10-10T00:08:44.245Z,41.49
2022-10-10T00:11:13.302Z,43.79
2022-10-10T00:13:41.090Z,44.39
2022-10-10T00:16:09.365Z,43.85
2022-10-10T00:18:38.055Z,44.60
2022-10-10T00:21:06.528Z,42.75
2022-10-10T00:23:33.950Z,42.49
2022-10-10T00:26:05.571Z,41.08
2022-10-10T00:28:38.525Z,41.42
2022-10-10T00:31:08.817Z,43.16
2022-10-10T00:33:37.286Z,41.50
2022-10-10T00:36:05.639Z,40.63
2022-10-10T00:38:33.396Z,40.21
2022-10-10T00:41:00.929Z,39.69
2022-10-10T00:43:29.085Z,39.58
2022-10-10T00:45:56.774Z,39.21
2022-10-10T00:48:40.289Z,39.11
2022-10-10T00:51:17.070Z,39.75
2022-10-10T00:53:53.238Z,39.85
2022-10-10T00:56:25.146Z,38.25
2022-10-10T00:58:54.771Z,38.94
2022-10-10T01:01:22.588Z,39.05
2022-10-10T01:03:49.948Z,39.14
2022-10-10T01:06:17.414Z,39.84
2022-10-10T01:08:45.137Z,40.18
2022-10-10T01:11:34.390Z,39.89
2022-10-10T01:14:11.315Z,40.43
2022-10-10T01:16:50.544Z,39.86
2022-10-10T01:19:24.208Z,39.17
2022-10-10T01:22:08.617Z,40.15
2022-10-10T01:24:56.656Z,40.17
2022-10-10T01:27:41.979Z,39.27
2022-10-10T01:30:11.633Z,39.56
2022-10-10T01:32:56.078Z,40.34
2022-10-10T01:35:41.927Z,40.84
2022-10-10T01:38:17.629Z,41.34
2022-10-10T01:40:53.992Z,41.48
2022-10-10T01:43:21.353Z,40.88
2022-10-10T01:45:51.296Z,41.30
2022-10-10T01:48:27.450Z,39.71
2022-10-10T01:51:07.127Z,40.53
2022-10-10T01:53:52.971Z,42.03
2022-10-10T01:56:44.811Z,44.45
2022-10-10T01:59:49.960Z,44.63
2022-10-10T02:02:41.857Z,42.90
2022-10-10T02:05:15.981Z,42.00
2022-10-10T02:07:52.357Z,44.78
2022-10-10T02:10:24.251Z,43.03
2022-10-10T02:12:52.148Z,42.65
2022-10-10T02:15:22.331Z,42.36
2022-10-10T02:17:50.862Z,41.66
2022-10-10T02:20:21.212Z,42.57
2022-10-10T02:22:50.477Z,42.59
2022-10-10T02:25:22.630Z,43.68
2022-10-10T02:27:58.358Z,42.72
2022-10-10T02:30:26.120Z,40.89
2022-10-10T02:33:01.222Z,41.64
2022-10-10T02:35:29.560Z,44.10
2022-10-10T02:37:58.902Z,41.98
2022-10-10T02:40:29.137Z,41.35
2022-10-10T02:42:57.922Z,41.01
2022-10-10T02:45:25.843Z,41.10
2022-10-10T02:47:53.536Z,40.47
2022-10-10T02:50:22.303Z,40.38
2022-10-10T02:52:49.801Z,41.60
2022-10-10T02:55:17.494Z,41.74
2022-10-10T02:57:45.117Z,42.26
2022-10-10T03:00:13.099Z,40.36
2022-10-10T03:02:40.451Z,42.36
2022-10-10T03:05:08.596Z,42.18
2022-10-10T03:07:36.165Z,41.18
2022-10-10T03:10:06.169Z,43.03
2022-10-10T03:12:34.908Z,43.38
2022-10-10T03:15:02.593Z,42.32
2022-10-10T03:17:30.080Z,43.44
2022-10-10T03:19:57.703Z,43.88
2022-10-10T03:22:25.091Z,44.43
2022-10-10T03:24:52.437Z,45.25
2022-10-10T03:27:20.069Z,43.95
2022-10-10T03:29:47.424Z,45.06
2022-10-10T03:32:14.753Z,44.32
2022-10-10T03:34:42.363Z,44.28
2022-10-10T03:37:09.793Z,44.42
2022-10-10T03:39:37.565Z,42.62
2022-10-10T03:42:05.250Z,45.79
2022-10-10T03:44:32.770Z,44.72
2022-10-10T03:47:00.150Z,43.80
2022-10-10T03:49:27.816Z,45.45
2022-10-10T03:51:55.218Z,45.77
2022-10-10T03:54:22.620Z,43.53
2022-10-10T03:56:50.240Z,43.77
2022-10-10T03:59:17.612Z,45.88
2022-10-10T04:01:45.014Z,43.56
2022-10-10T04:04:12.714Z,47.01
2022-10-10T04:06:40.181Z,47.03
2022-10-10T04:09:07.629Z,47.09
2022-10-10T04:11:37.021Z,46.10
2022-10-10T04:14:04.414Z,49.33
2022-10-10T04:16:31.753Z,48.67
2022-10-10T04:18:59.378Z,46.61
2022-10-10T04:21:26.777Z,47.39
2022-10-10T04:23:54.128Z,47.79
2022-10-10T04:26:21.760Z,46.05
2022-10-10T04:28:49.239Z,46.68
2022-10-10T04:31:16.640Z,49.65
2022-10-10T04:33:44.379Z,51.12
2022-10-10T04:36:11.839Z,50.53
2022-10-10T04:38:39.175Z,47.27
2022-10-10T04:41:07.094Z,47.35
2022-10-10T04:43:34.519Z,47.38
2022-10-10T04:46:02.063Z,47.17
2022-10-10T04:48:29.736Z,48.17
2022-10-10T04:50:58.458Z,47.03
2022-10-10T04:53:26.947Z,46.28
2022-10-10T04:55:54.583Z,46.47
2022-10-10T04:58:21.950Z,45.78
2022-10-10T05:00:53.357Z,45.22
2022-10-10T05:03:22.195Z,45.86
2022-10-10T05:05:50.119Z,44.51
2022-10-10T05:08:18.323Z,46.31
2022-10-10T05:10:46.925Z,46.56
2022-10-10T05:13:15.580Z,46.77
2022-10-10T05:15:43.333Z,45.53
2022-10-10T05:18:11.225Z,46.20
2022-10-10T05:20:38.620Z,44.59
2022-10-10T05:23:06.069Z,44.58
2022-10-10T05:25:33.715Z,45.51
2022-10-10T05:28:01.083Z,44.81
2022-10-10T05:30:28.422Z,44.48
2022-10-10T05:32:56.272Z,43.78
2022-10-10T05:35:23.675Z,43.32
2022-10-10T05:37:51.034Z,42.29
2022-10-10T05:40:18.679Z,42.21
2022-10-10T05:42:47.105Z,42.62
2022-10-10T05:45:14.485Z,42.41
2022-10-10T05:47:42.154Z,41.91
2022-10-10T05:50:22.904Z,42.25
2022-10-10T05:52:51.083Z,42.15
2022-10-10T05:55:18.615Z,41.59
2022-10-10T05:57:46.384Z,43.02
2022-10-10T06:00:14.079Z,42.68
2022-10-10T06:02:41.802Z,42.88
2022-10-10T06:05:09.434Z,42.61
2022-10-10T06:08:02.530Z,41.98
2022-10-10T06:10:24.655Z,42.02
2022-10-10T06:12:52.321Z,42.33
2022-10-10T06:15:19.799Z,43.19
2022-10-10T06:17:47.478Z,41.63
2022-10-10T06:20:14.858Z,41.96
2022-10-10T06:22:42.202Z,44.50
2022-10-10T06:25:29.000Z,43.34
2022-10-10T06:27:57.270Z,42.85
2022-10-10T06:30:25.054Z,44.01
2022-10-10T06:32:56.480Z,42.91
2022-10-10T06:35:24.850Z,42.01
2022-10-10T06:37:52.220Z,43.26
2022-10-10T06:40:19.644Z,43.45
2022-10-10T06:42:47.259Z,42.78
2022-10-10T06:45:14.688Z,44.35
2022-10-10T06:47:42.108Z,44.31
2022-10-10T06:50:09.786Z,41.80
2022-10-10T06:52:37.135Z,43.09
2022-10-10T06:55:04.960Z,42.87
2022-10-10T06:57:32.714Z,43.82
2022-10-10T07:00:00.112Z,41.88
2022-10-10T07:02:28.622Z,41.21
2022-10-10T07:04:56.277Z,42.52
2022-10-10T07:07:23.607Z,41.44
2022-10-10T07:09:50.920Z,42.49
2022-10-10T07:12:18.564Z,42.04
2022-10-10T07:14:45.940Z,42.86
2022-10-10T07:17:13.286Z,41.50
2022-10-10T07:19:40.907Z,40.26
2022-10-10T07:22:08.266Z,41.38
2022-10-10T07:24:36.982Z,42.15
2022-10-10T07:27:08.638Z,41.36
2022-10-10T07:29:36.299Z,39.60
2022-10-10T07:32:03.655Z,40.14
2022-10-10T07:34:31.739Z,42.20
2022-10-10T07:36:59.084Z,40.21
2022-10-10T07:39:26.440Z,40.98
2022-10-10T07:41:54.072Z,39.93
2022-10-10T07:44:23.584Z,41.35
2022-10-10T07:46:50.919Z,42.26
2022-10-10T07:49:18.581Z,42.16
2022-10-10T07:51:46.024Z,42.10
2022-10-10T07:54:13.421Z,41.36
2022-10-10T07:56:41.032Z,42.04
2022-10-10T07:59:08.419Z,42.84
2022-10-10T08:01:35.840Z,42.40
2022-10-10T08:04:03.572Z,42.25
2022-10-10T08:06:30.910Z,41.65
2022-10-10T08:08:58.307Z,41.22
2022-10-10T08:11:25.932Z,40.73
2022-10-10T08:13:53.316Z,40.72
2022-10-10T08:16:20.852Z,40.82
2022-10-10T08:18:48.506Z,40.16
2022-10-10T08:21:16.423Z,42.57
2022-10-10T08:23:44.065Z,41.63
2022-10-10T08:26:13.512Z,41.21
2022-10-10T08:28:41.267Z,41.31
2022-10-10T08:31:14.515Z,41.85
2022-10-10T08:33:43.316Z,42.01
2022-10-10T08:36:13.502Z,40.87
2022-10-10T08:38:40.956Z,41.09
2022-10-10T08:41:11.359Z,39.17
2022-10-10T08:43:45.711Z,39.17
2022-10-10T08:46:18.941Z,38.79
2022-10-10T08:48:46.719Z,37.94
2022-10-10T08:51:21.842Z,35.75
2022-10-10T08:53:52.231Z,36.55
2022-10-10T08:56:26.766Z,36.59
2022-10-10T08:58:59.070Z,35.48
2022-10-10T09:01:36.667Z,36.51
2022-10-10T09:04:24.454Z,34.68
2022-10-10T09:07:37.851Z,36.23
2022-10-10T09:10:28.285Z,33.19
2022-10-10T09:13:02.056Z,33.16
2022-10-10T09:15:41.562Z,33.11
2022-10-10T09:18:38.512Z,33.58
2022-10-10T09:21:34.028Z,32.42
2022-10-10T09:24:24.195Z,32.75
2022-10-10T09:26:56.709Z,31.13
2022-10-10T09:29:33.253Z,31.78
2022-10-10T09:32:12.172Z,31.29
2022-10-10T09:34:43.106Z,31.36
2022-10-10T09:37:45.671Z,31.51
2022-10-10T09:40:14.314Z,29.46
2022-10-10T09:42:43.802Z,29.76
2022-10-10T09:45:24.826Z,30.33
2022-10-10T09:47:55.238Z,30.86
2022-10-10T09:50:23.909Z,29.64
2022-10-10T09:52:52.074Z,29.41
2022-10-10T09:55:22.369Z,28.63
2022-10-10T09:57:52.046Z,28.08
2022-10-10T10:00:19.623Z,28.36
2022-10-10T10:03:04.542Z,27.35
2022-10-10T10:05:31.849Z,28.03
2022-10-10T10:07:59.412Z,28.56
2022-10-10T10:10:27.695Z,27.88
2022-10-10T10:12:55.651Z,27.75
2022-10-10T10:15:25.462Z,27.90
2022-10-10T10:18:19.450Z,27.90
2022-10-10T10:20:52.634Z,25.55
2022-10-10T10:23:56.464Z,26.17
2022-10-10T10:26:29.227Z,26.49
2022-10-10T10:28:58.039Z,26.83
2022-10-10T10:31:47.853Z,27.13
2022-10-10T10:34:36.939Z,26.21
2022-10-10T10:37:12.731Z,25.51
2022-10-10T10:40:17.963Z,25.00
2022-10-10T10:43:06.959Z,26.58
2022-10-10T10:46:16.204Z,25.33
2022-10-10T10:49:03.381Z,24.31
2022-10-10T10:51:39.734Z,24.67
2022-10-10T10:54:40.482Z,24.85
2022-10-10T10:57:36.880Z,24.82
2022-10-10T11:00:47.254Z,23.88
2022-10-10T11:05:18.328Z,23.30
2022-10-10T11:06:54.237Z,23.29
2022-10-10T11:09:55.016Z,23.82
2022-10-10T11:12:51.060Z,24.52
2022-10-10T11:15:23.981Z,24.07
2022-10-10T11:18:01.626Z,24.95
2022-10-10T11:20:36.277Z,24.62
2022-10-10T11:23:43.033Z,22.56
2022-10-10T11:26:19.423Z,23.50
2022-10-10T11:28:59.377Z,23.74
2022-10-10T11:31:31.998Z,23.46
2022-10-10T11:34:05.148Z,23.18
2022-10-10T11:36:35.484Z,23.93
2022-10-10T11:39:39.634Z,23.09
2022-10-10T11:42:15.236Z,23.51
2022-10-10T11:44:46.645Z,22.46
2022-10-10T11:47:35.865Z,22.30
2022-10-10T11:50:12.604Z,23.52
2022-10-10T11:52:53.182Z,22.94
2022-10-10T11:55:29.048Z,22.48
2022-10-10T11:58:26.238Z,22.64
2022-10-10T12:01:02.069Z,21.66
2022-10-10T12:03:29.784Z,21.51
2022-10-10T12:06:07.862Z,21.37
2022-10-10T12:08:44.107Z,21.83
2022-10-10T12:11:33.758Z,21.26
2022-10-10T12:14:15.637Z,21.92
2022-10-10T12:16:43.313Z,21.61
2022-10-10T12:19:20.027Z,22.50
2022-10-10T12:21:59.612Z,21.75
2022-10-10T12:24:31.181Z,21.70
2022-10-10T12:26:58.386Z,22.68
2022-10-10T12:30:08.034Z,21.87
2022-10-10T12:32:43.689Z,21.81
2022-10-10T12:35:41.773Z,21.11
2022-10-10T12:38:23.897Z,21.55
2022-10-10T12:40:57.450Z,22.52
2022-10-10T12:43:52.203Z,22.79
2022-10-10T12:46:32.453Z,22.00
2022-10-10T12:49:14.220Z,22.50
2022-10-10T12:51:42.226Z,23.60
2022-10-10T12:54:22.666Z,23.23
2022-10-10T12:56:52.552Z,24.73
2022-10-10T12:59:24.055Z,23.72
2022-10-10T13:01:57.603Z,24.42
2022-10-10T13:04:26.061Z,23.74
2022-10-10T13:06:56.204Z,23.54
2022-10-10T13:09:35.349Z,28.07
2022-10-10T13:12:06.083Z,23.56
2022-10-10T13:14:42.877Z,24.24
2022-10-10T13:17:21.743Z,23.46
2022-10-10T13:19:49.868Z,23.83
2022-10-10T13:22:18.390Z,23.55
2022-10-10T13:24:46.087Z,23.53
2022-10-10T13:27:22.070Z,23.72
2022-10-10T13:29:50.149Z,24.32
2022-10-10T13:32:21.419Z,23.90
2022-10-10T13:34:53.328Z,29.41
2022-10-10T13:37:21.075Z,26.91
2022-10-10T13:39:50.749Z,25.78
2022-10-10T13:42:36.901Z,24.55
2022-10-10T13:45:46.065Z,24.28
2022-10-10T13:48:27.758Z,24.70
2022-10-10T13:51:08.758Z,23.20
2022-10-10T13:53:43.554Z,25.52
2022-10-10T13:56:31.619Z,24.16
2022-10-10T13:59:08.051Z,25.21
2022-10-10T14:01:45.052Z,24.04
2022-10-10T14:04:12.738Z,24.27
2022-10-10T14:07:12.089Z,24.73
2022-10-10T14:09:50.000Z,24.95
2022-10-10T14:12:30.543Z,24.67
2022-10-10T14:14:59.511Z,23.46
2022-10-10T14:17:27.525Z,24.65
2022-10-10T14:19:55.643Z,23.52
2022-10-10T14:22:23.704Z,23.53
2022-10-10T14:24:51.351Z,24.21
2022-10-10T14:27:22.363Z,24.06
2022-10-10T14:29:51.062Z,24.38
2022-10-10T14:32:19.140Z,24.69
2022-10-10T14:34:47.424Z,25.17
2022-10-10T14:37:41.334Z,24.47
2022-10-10T14:40:29.442Z,23.95
2022-10-10T14:42:57.201Z,23.19
2022-10-10T14:45:25.236Z,23.78
2022-10-10T14:47:52.585Z,33.28
2022-10-10T14:50:23.213Z,25.16
2022-10-10T14:52:50.738Z,26.41
2022-10-10T14:55:18.360Z,26.30
2022-10-10T14:57:46.016Z,25.53
2022-10-10T15:00:19.046Z,25.37
2022-10-10T15:02:47.003Z,25.77
2022-10-10T15:05:15.443Z,25.93
2022-10-10T15:07:42.976Z,26.61
2022-10-10T15:10:33.405Z,26.94
2022-10-10T15:13:00.133Z,27.17
2022-10-10T15:15:28.050Z,26.51
2022-10-10T15:17:58.702Z,26.82
2022-10-10T15:20:31.364Z,26.43
2022-10-10T15:23:01.101Z,26.70
2022-10-10T15:25:33.291Z,26.40
2022-10-10T15:28:04.765Z,27.13
2022-10-10T15:30:32.488Z,27.53
2022-10-10T15:33:00.114Z,26.63
2022-10-10T15:35:44.648Z,28.61
2022-10-10T15:38:16.453Z,29.35
2022-10-10T15:40:44.172Z,28.91
2022-10-10T15:43:11.497Z,27.96
2022-10-10T15:46:01.624Z,28.60
2022-10-10T15:48:31.056Z,29.30
2022-10-10T15:50:58.648Z,28.74
2022-10-10T15:53:28.562Z,28.25
2022-10-10T15:55:56.342Z,28.57
2022-10-10T15:58:23.692Z,28.51
2022-10-10T16:00:51.259Z,28.56
2022-10-10T16:03:20.032Z,29.20
2022-10-10T16:05:47.366Z,29.47
2022-10-10T16:08:15.045Z,30.04
2022-10-10T16:10:43.584Z,28.85
2022-10-10T16:13:11.474Z,29.12
2022-10-10T16:15:38.903Z,28.66
2022-10-10T16:18:06.783Z,29.58
2022-10-10T16:20:34.141Z,30.11
2022-10-10T16:23:01.522Z,31.58
2022-10-10T16:25:29.133Z,31.28
2022-10-10T16:27:56.732Z,32.38
2022-10-10T16:30:24.385Z,32.22
2022-10-10T16:32:52.078Z,32.19
2022-10-10T16:35:19.689Z,31.91
2022-10-10T16:37:47.097Z,32.26
2022-10-10T16:40:14.734Z,32.98
2022-10-10T16:42:42.117Z,32.53
2022-10-10T16:45:10.581Z,31.92
2022-10-10T16:47:38.745Z,32.46
2022-10-10T16:50:06.582Z,32.89
2022-10-10T16:52:38.261Z,32.85
2022-10-10T16:55:07.566Z,33.05
2022-10-10T16:57:36.280Z,33.44
2022-10-10T17:00:05.763Z,33.65
2022-10-10T17:02:33.672Z,33.63
2022-10-10T17:05:01.369Z,33.74
2022-10-10T17:07:28.791Z,33.46
2022-10-10T17:09:56.495Z,33.59
2022-10-10T17:12:23.873Z,33.37
2022-10-10T17:14:51.313Z,33.56
2022-10-10T17:17:19.490Z,33.49
2022-10-10T17:19:49.237Z,32.90
2022-10-10T17:22:17.058Z,32.76
2022-10-10T17:24:44.720Z,33.78
2022-10-10T17:27:12.247Z,34.35
2022-10-10T17:29:40.119Z,34.33
2022-10-10T17:32:07.904Z,35.59
2022-10-10T17:34:35.359Z,35.82
2022-10-10T17:37:03.663Z,36.79
2022-10-10T17:39:31.953Z,37.94
2022-10-10T17:42:00.305Z,38.39
2022-10-10T17:44:28.093Z,37.16
2022-10-10T17:46:55.789Z,37.01
2022-10-10T17:49:23.427Z,37.17
2022-10-10T17:51:50.936Z,36.93
2022-10-10T17:54:19.154Z,37.36
2022-10-10T17:56:46.747Z,37.81
2022-10-10T17:59:14.227Z,40.91
2022-10-10T18:01:42.241Z,42.75
2022-10-10T18:04:11.161Z,42.53
2022-10-10T18:06:38.525Z,44.46
2022-10-10T18:09:06.266Z,44.43
2022-10-10T18:11:33.878Z,42.64
2022-10-10T18:14:01.355Z,42.75
2022-10-10T18:16:32.959Z,41.39
2022-10-10T18:19:04.190Z,41.67
2022-10-10T18:21:31.893Z,41.75
2022-10-10T18:24:01.047Z,42.10
2022-10-10T18:26:30.006Z,41.76
2022-10-10T18:28:58.190Z,42.30
2022-10-10T18:31:28.665Z,42.30
2022-10-10T18:33:56.847Z,44.55
2022-10-10T18:36:27.424Z,45.88
2022-10-10T18:38:58.605Z,45.79
2022-10-10T18:41:30.559Z,45.34
2022-10-10T18:43:57.973Z,44.51
2022-10-10T18:46:25.934Z,45.12
2022-10-10T18:48:54.346Z,45.47
2022-10-10T18:51:24.798Z,50.07
2022-10-10T18:53:56.452Z,52.35
2022-10-10T18:56:26.731Z,54.31
2022-10-10T18:58:57.561Z,56.32
2022-10-10T19:01:26.682Z,58.91
2022-10-10T19:03:55.308Z,55.83
2022-10-10T19:06:24.182Z,53.41
2022-10-10T19:08:54.368Z,50.49
2022-10-10T19:11:28.686Z,46.45
2022-10-10T19:13:58.272Z,46.57
2022-10-10T19:16:26.120Z,44.93
2022-10-10T19:18:58.094Z,44.80
2022-10-10T19:21:28.090Z,46.02
2022-10-10T19:23:55.586Z,48.56
2022-10-10T19:26:23.041Z,52.07
2022-10-10T19:28:50.973Z,58.72
2022-10-10T19:31:20.364Z,57.84
2022-10-10T19:33:51.695Z,55.21
2022-10-10T19:36:19.993Z,51.71
2022-10-10T19:38:47.559Z,48.23
2022-10-10T19:41:15.088Z,47.14
2022-10-10T19:43:44.045Z,46.79
2022-10-10T19:46:13.841Z,46.46
2022-10-10T19:48:41.368Z,51.90
2022-10-10T19:51:12.795Z,58.42
2022-10-10T19:53:41.892Z,52.69
2022-10-10T19:56:14.372Z,47.76
2022-10-10T19:58:43.291Z,44.06
2022-10-10T20:01:13.902Z,44.03
2022-10-10T20:03:42.839Z,44.69
2022-10-10T20:06:10.443Z,46.96
2022-10-10T20:08:38.576Z,46.26
2022-10-10T20:11:06.603Z,44.91
2022-10-10T20:13:34.725Z,44.21
2022-10-10T20:16:04.285Z,44.71
2022-10-10T20:18:34.457Z,46.57
2022-10-10T20:21:16.358Z,45.95
2022-10-10T20:23:46.093Z,45.41
2022-10-10T20:26:16.858Z,45.45
2022-10-10T20:28:45.046Z,48.02
2022-10-10T20:31:21.455Z,49.82
2022-10-10T20:33:50.562Z,50.82
2022-10-10T20:36:18.831Z,53.27
2022-10-10T20:38:52.809Z,54.11
2022-10-10T20:41:21.491Z,59.85
2022-10-10T20:43:49.001Z,63.98
2022-10-10T20:46:16.467Z,62.94
2022-10-10T20:48:44.205Z,56.88
2022-10-10T20:51:13.240Z,61.12
2022-10-10T20:53:43.996Z,55.99
2022-10-10T20:56:12.889Z,54.15
2022-10-10T20:58:40.906Z,52.91
2022-10-10T21:01:13.743Z,52.55
2022-10-10T21:03:42.884Z,48.16
2022-10-10T21:06:13.298Z,49.33
2022-10-10T21:08:41.691Z,50.27
2022-10-10T21:11:11.302Z,49.65
2022-10-10T21:13:40.922Z,49.73
2022-10-10T21:16:13.959Z,54.84
2022-10-10T21:18:44.522Z,54.67
2022-10-10T21:21:17.589Z,46.83
2022-10-10T21:23:46.496Z,47.32
2022-10-10T21:26:20.201Z,46.14
2022-10-10T21:28:52.705Z,44.73
2022-10-10T21:31:23.533Z,47.11
2022-10-10T21:33:51.828Z,48.39
2022-10-10T21:36:20.413Z,47.99
2022-10-10T21:38:48.026Z,47.79
2022-10-10T21:41:21.744Z,44.94
2022-10-10T21:43:54.876Z,45.78
2022-10-10T21:46:27.784Z,46.62
2022-10-10T21:48:56.975Z,46.66
2022-10-10T21:51:25.508Z,46.36
2022-10-10T21:53:55.331Z,50.58
2022-10-10T21:56:22.797Z,47.24
2022-10-10T21:58:50.436Z,43.38
2022-10-10T22:01:20.010Z,42.29
2022-10-10T22:03:49.640Z,43.40
2022-10-10T22:06:19.519Z,44.65
2022-10-10T22:08:47.580Z,47.50
2022-10-10T22:11:21.852Z,46.91
2022-10-10T22:13:49.531Z,50.96
2022-10-10T22:16:17.416Z,53.23
2022-10-10T22:18:44.873Z,56.21
2022-10-10T22:21:15.278Z,54.45
2022-10-10T22:23:44.270Z,56.48
2022-10-10T22:26:13.611Z,57.19
2022-10-10T22:28:41.053Z,58.95
2022-10-10T22:31:11.333Z,58.64
2022-10-10T22:33:39.091Z,61.95
2022-10-10T22:36:07.356Z,56.01
2022-10-10T22:38:40.919Z,55.89
2022-10-10T22:41:08.957Z,55.57
2022-10-10T22:43:36.617Z,57.57
2022-10-10T22:46:04.256Z,58.76
2022-10-10T22:48:32.016Z,58.04
2022-10-10T22:51:06.073Z,56.28
2022-10-10T22:53:34.119Z,53.61
2022-10-10T22:56:02.253Z,52.46
2022-10-10T22:58:31.855Z,54.68
2022-10-10T23:01:11.710Z,55.65
2022-10-10T23:03:39.519Z,54.86
2022-10-10T23:06:07.547Z,55.46
2022-10-10T23:08:35.628Z,56.13
2022-10-10T23:11:03.845Z,55.41
2022-10-10T23:13:31.807Z,54.72
2022-10-10T23:15:59.262Z,53.18
2022-10-10T23:18:28.251Z,54.58
2022-10-10T23:20:55.996Z,54.84
2022-10-10T23:23:23.815Z,56.24
2022-10-10T23:25:51.791Z,55.71
2022-10-10T23:28:19.559Z,57.54
2022-10-10T23:30:48.318Z,56.07
2022-10-10T23:33:17.042Z,56.29
2022-10-10T23:35:44.516Z,58.59
2022-10-10T23:38:31.941Z,56.93
2022-10-10T23:41:19.556Z,56.84
2022-10-10T23:44:07.684Z,57.45
2022-10-10T23:46:51.834Z,55.70
2022-10-10T23:49:36.164Z,54.39
2022-10-10T23:52:19.711Z,54.57
2022-10-10T23:55:02.986Z,55.29
2022-10-10T23:57:46.831Z,56.52
